Time;durP1;ratioP1;P1;durP2;ratioP2;P2;SDS_P1;SDS_P2;PMS_P1;PMS_P2;Temp;Humidity;BMP_temperature;BMP_pressure;BME280_temperature;BME280_humidity;BME280_pressure;Samples;Min_cycle;Max_cycle;Signal;HPM_P1;HPM_P2
2022/07/21 07:15:19;;;;;;;;;34.00;30.00;;;;;-147.49;100.00;58502.75;6346174;22;9622;31
2022/07/21 07:18:20;;;;;;;;;;;;;;;;;;;;;
2022/07/21 07:20:59;;;;;;;;;;;;;;;;;;;;;
2022/07/21 07:27:24;;;;;;;;;26.75;26.75;;;;;-147.49;100.00;58502.75;6122211;23;9551;-91
2022/07/21 07:38:26;;;;;;;;;32.50;28.50;;;;;-147.49;100.00;58502.75;6350233;22;9752;-95
2022/07/21 07:40:52;;;;;;;;;35.25;32.75;;;;;-147.49;100.00;58502.75;6354474;22;9671;-96
2022/07/21 07:43:17;;;;;;;;;33.67;33.33;;;;;-147.49;100.00;58502.75;6326786;22;9653;-94
2022/07/21 07:45:43;;;;;;;;;31.00;30.50;;;;;-147.49;100.00;58502.75;6327927;22;8770;-94
2022/07/21 07:48:08;;;;;;;;;31.33;30.00;;;;;-147.49;100.00;58502.75;6355937;22;8754;-95
2022/07/21 07:50:34;;;;;;;;;33.00;33.00;;;;;-147.49;100.00;58502.75;6355279;22;8746;-96
2022/07/21 07:52:59;;;;;;;;;35.50;33.00;;;;;-147.49;100.00;58502.75;6352843;22;8793;-94
2022/07/21 07:55:25;;;;;;;;;32.50;30.00;;;;;-147.49;100.00;58502.75;6355689;22;8738;-93
2022/07/21 07:57:55;;;;;;;;;33.00;33.00;;;;;-147.49;100.00;58502.75;6356176;22;8784;-95
2022/07/21 08:00:29;;;;;;;;;38.50;34.00;;;;;-147.49;100.00;58502.75;6358408;22;8663;-95
2022/07/21 08:03:19;;;;;;;;;29.75;27.50;;;;;-147.49;100.00;58502.75;6329051;22;9541;-96
2022/07/21 08:05:45;;;;;;;;;32.33;30.00;;;;;-147.49;100.00;58502.75;6329249;22;9687;-96
2022/07/21 08:08:22;;;;;;;;;26.33;26.33;;;;;-147.49;100.00;58502.75;6332412;22;9377;-95
2022/07/21 08:10:48;;;;;;;;;25.25;25.25;;;;;-147.49;100.00;58502.75;6329142;22;8757;-95
2022/07/21 08:13:34;;;;;;;;;34.25;30.25;;;;;-147.49;100.00;58502.75;6333491;22;9538;-95
2022/07/21 08:15:59;;;;;;;;;28.50;26.25;;;;;-147.49;100.00;58502.75;6361256;22;9673;-96
2022/07/21 08:18:28;;;;;;;;;30.50;30.00;;;;;-147.49;100.00;58502.75;6358672;22;9629;-96
2022/07/21 08:20:56;;;;;;;;;27.67;26.33;;;;;-147.49;100.00;58502.75;6327243;22;8727;-96
2022/07/21 08:23:25;;;;;;;;;26.33;26.33;;;;;-147.49;100.00;58502.75;6327068;22;9399;-95
2022/07/21 08:25:51;;;;;;;;;25.75;25.50;;;;;-147.49;100.00;58502.75;6358071;22;9209;-95
2022/07/21 08:28:18;;;;;;;;;21.67;20.67;;;;;-147.49;100.00;58502.75;6331909;22;10349;-95
2022/07/21 08:30:44;;;;;;;;;23.00;23.00;;;;;-147.49;100.00;58502.75;6327488;22;8742;-94
2022/07/21 08:33:09;;;;;;;;;25.00;24.33;;;;;-147.49;100.00;58502.75;6357177;22;9083;-95
2022/07/21 08:35:55;;;;;;;;;22.33;22.33;;;;;-147.49;100.00;58502.75;6363409;22;8915;-96
2022/07/21 08:38:24;;;;;;;;;25.33;25.33;;;;;-147.49;100.00;58502.75;6365899;22;8766;-96
2022/07/21 08:40:52;;;;;;;;;20.67;20.67;;;;;-147.49;100.00;58502.75;6359130;22;9103;-95
2022/07/21 08:43:23;;;;;;;;;21.00;21.00;;;;;-147.49;100.00;58502.75;6355911;22;9146;-94
2022/07/21 08:45:49;;;;;;;;;21.33;19.67;;;;;-147.49;100.00;58502.75;6356171;22;9280;-95
2022/07/21 08:48:19;;;;;;;;;22.33;22.33;;;;;-147.49;100.00;58502.75;6355153;22;9291;-93
2022/07/21 08:50:50;;;;;;;;;22.00;22.00;;;;;-147.49;100.00;58502.75;6354730;22;9528;-95
2022/07/21 08:53:15;;;;;;;;;26.75;26.75;;;;;-147.49;100.00;58502.75;6354773;22;9291;-94
2022/07/21 08:55:41;;;;;;;;;23.00;22.00;;;;;-147.49;100.00;58502.75;6354615;22;9595;-95
2022/07/21 08:58:11;;;;;;;;;23.00;22.75;;;;;-147.49;100.00;58502.75;6355708;22;8777;-94
2022/07/21 09:00:41;;;;;;;;;25.67;24.00;;;;;-147.49;100.00;58502.75;6355658;22;8734;-96
2022/07/21 09:03:21;;;;;;;;;25.00;25.00;;;;;-147.49;100.00;58502.75;6327344;22;10300;-94
2022/07/21 09:06:15;;;;;;;;;21.75;20.75;;;;;-147.49;100.00;58502.75;6352771;22;9573;-94
2022/07/21 09:08:54;;;;;;;;;20.33;20.33;;;;;-147.49;100.00;58502.75;6354978;22;9507;-93
2022/07/21 09:11:21;;;;;;;;;18.67;18.67;;;;;-147.49;100.00;58502.75;6327156;22;9282;-94
2022/07/21 09:14:08;;;;;;;;;18.00;18.00;;;;;-147.49;100.00;58502.75;6354721;22;9371;-95
2022/07/21 09:16:38;;;;;;;;;16.67;16.67;;;;;-147.49;100.00;58502.75;6362153;22;9212;-91
2022/07/21 09:19:05;;;;;;;;;21.33;21.00;;;;;-147.49;100.00;58502.75;6355470;22;9272;-94
2022/07/21 09:21:32;;;;;;;;;17.33;16.00;;;;;-147.49;100.00;58502.75;6355545;22;9404;-82
2022/07/21 09:24:11;;;;;;;;;15.00;15.00;;;;;-147.49;100.00;58502.75;6327220;22;9008;-82
2022/07/21 09:26:59;;;;;;;;;17.00;17.00;;;;;-147.49;100.00;58502.75;6355082;22;9036;-84
